BEL5KF EBBR-LPFR
Flight info
| Callsign | BEL5KF |
|---|---|
| Flight time | N/A |
| Altitude | 35000 |
| Route | CIV N872 MEDIL DCT ERIGA UZ218 FUJTI DCT BAKUP DCT MOSEN DCT ELVAR DCT ALAGU |
| Aircraft | A20N/M-DE3FGHIJ1LORVWY/HB1G1 |
Departure
| Time | 2026-05-07 06:28 |
|---|---|
| Airport | Brussels Airport (EBBR) |
Arrival
| Time | N/A |
|---|---|
| Airport | Faro - Gago Coutinho International Airport (LPFR) |
| Time | Latitude | Longitude | Altitude | Speed | Heading |
|---|---|---|---|---|---|
| 2026-05-07 06:17 | 50.90496 | 4.48900 | 193 ft | 0 kts | 155° |
| 2026-05-07 06:23 | 50.90506 | 4.48893 | 193 ft | 2 kts | 155° |
| 2026-05-07 06:23 | 50.90520 | 4.48883 | 193 ft | 2 kts | 155° |
| 2026-05-07 06:23 | 50.90532 | 4.48875 | 193 ft | 0 kts | 155° |
| 2026-05-07 06:24 | 50.90542 | 4.48866 | 193 ft | 2 kts | 141° |
| 2026-05-07 06:24 | 50.90552 | 4.48849 | 193 ft | 2 kts | 125° |
| 2026-05-07 06:24 | 50.90560 | 4.48828 | 193 ft | 2 kts | 107° |
| 2026-05-07 06:24 | 50.90562 | 4.48805 | 193 ft | 2 kts | 90° |
| 2026-05-07 06:25 | 50.90561 | 4.48782 | 193 ft | 2 kts | 73° |
| 2026-05-07 06:25 | 50.90559 | 4.48773 | 193 ft | 0 kts | 66° |
| 2026-05-07 06:25 | 50.90562 | 4.48782 | 193 ft | 4 kts | 66° |
| 2026-05-07 06:25 | 50.90590 | 4.48885 | 193 ft | 15 kts | 66° |
| 2026-05-07 06:26 | 50.90648 | 4.49079 | 193 ft | 21 kts | 64° |
| 2026-05-07 06:26 | 50.90708 | 4.49287 | 193 ft | 20 kts | 64° |
| 2026-05-07 06:26 | 50.90766 | 4.49491 | 193 ft | 20 kts | 65° |
| 2026-05-07 06:26 | 50.90823 | 4.49688 | 193 ft | 19 kts | 65° |
| 2026-05-07 06:27 | 50.90914 | 4.49787 | 193 ft | 14 kts | 25° |
| 2026-05-07 06:27 | 50.91000 | 4.49887 | 193 ft | 16 kts | 39° |
| 2026-05-07 06:27 | 50.91077 | 4.50010 | 193 ft | 14 kts | 79° |
| 2026-05-07 06:27 | 50.91008 | 4.50087 | 193 ft | 14 kts | 197° |
| 2026-05-07 06:28 | 50.90772 | 4.49991 | 193 ft | 68 kts | 193° |
| 2026-05-07 06:28 | 50.90099 | 4.49718 | 193 ft | 130 kts | 194° |
| 2026-05-07 06:28 | 50.89030 | 4.49287 | 237 ft | 175 kts | 194° |
| 2026-05-07 06:28 | 50.87854 | 4.48808 | 839 ft | 173 kts | 196° |
| 2026-05-07 06:29 | 50.86738 | 4.48161 | 1506 ft | 174 kts | 203° |
| 2026-05-07 06:29 | 50.85632 | 4.47378 | 2115 ft | 178 kts | 204° |
| 2026-05-07 06:29 | 50.84487 | 4.46417 | 2552 ft | 193 kts | 221° |
| 2026-05-07 06:29 | 50.83630 | 4.44705 | 2992 ft | 208 kts | 239° |
| 2026-05-07 06:30 | 50.82855 | 4.42630 | 3399 ft | 229 kts | 240° |
| 2026-05-07 06:30 | 50.82011 | 4.40378 | 3910 ft | 247 kts | 239° |
| 2026-05-07 06:30 | 50.81067 | 4.37989 | 4433 ft | 265 kts | 238° |
| 2026-05-07 06:30 | 50.80046 | 4.35508 | 5160 ft | 274 kts | 237° |
| 2026-05-07 06:31 | 50.78995 | 4.33014 | 6055 ft | 276 kts | 237° |
| 2026-05-07 06:31 | 50.77935 | 4.30527 | 6933 ft | 278 kts | 236° |
| 2026-05-07 06:31 | 50.76844 | 4.27987 | 7796 ft | 280 kts | 236° |
| 2026-05-07 06:31 | 50.75749 | 4.25446 | 8612 ft | 283 kts | 236° |
| 2026-05-07 06:32 | 50.74641 | 4.22880 | 9416 ft | 286 kts | 236° |
| 2026-05-07 06:32 | 50.73527 | 4.20304 | 10205 ft | 288 kts | 237° |
| 2026-05-07 06:32 | 50.72384 | 4.17665 | 10765 ft | 299 kts | 237° |
| 2026-05-07 06:32 | 50.71175 | 4.14871 | 11140 ft | 317 kts | 237° |
| 2026-05-07 06:33 | 50.69886 | 4.11900 | 11543 ft | 333 kts | 236° |
| 2026-05-07 06:33 | 50.68581 | 4.08896 | 12192 ft | 338 kts | 237° |
| 2026-05-07 06:33 | 50.67257 | 4.05858 | 12933 ft | 341 kts | 237° |
| 2026-05-07 06:33 | 50.65918 | 4.02785 | 13654 ft | 344 kts | 237° |
| 2026-05-07 06:34 | 50.64551 | 3.99651 | 14357 ft | 347 kts | 237° |
| 2026-05-07 06:34 | 50.63187 | 3.96526 | 15047 ft | 349 kts | 237° |
| 2026-05-07 06:34 | 50.61809 | 3.93376 | 15717 ft | 352 kts | 236° |
| 2026-05-07 06:34 | 50.60413 | 3.90185 | 16370 ft | 355 kts | 236° |
| 2026-05-07 06:35 | 50.58494 | 3.85946 | 17205 ft | 360 kts | 231° |
| 2026-05-07 06:35 | 50.57334 | 3.84078 | 17597 ft | 364 kts | 222° |
| 2026-05-07 06:35 | 50.55261 | 3.81812 | 18209 ft | 368 kts | 209° |
| 2026-05-07 06:35 | 50.52931 | 3.80110 | 18815 ft | 371 kts | 205° |
| 2026-05-07 06:36 | 50.50556 | 3.78518 | 19381 ft | 374 kts | 204° |
| 2026-05-07 06:36 | 50.48144 | 3.76913 | 19938 ft | 378 kts | 204° |
| 2026-05-07 06:36 | 50.45726 | 3.75291 | 20483 ft | 381 kts | 204° |
| 2026-05-07 06:36 | 50.43293 | 3.73646 | 21019 ft | 384 kts | 204° |
| 2026-05-07 06:37 | 50.40840 | 3.71983 | 21547 ft | 387 kts | 205° |
| 2026-05-07 06:37 | 50.38355 | 3.70296 | 22068 ft | 390 kts | 205° |
| 2026-05-07 06:37 | 50.35910 | 3.68443 | 22562 ft | 392 kts | 212° |
| 2026-05-07 06:37 | 50.33687 | 3.65941 | 23063 ft | 394 kts | 223° |
| 2026-05-07 06:38 | 50.31798 | 3.62893 | 23549 ft | 395 kts | 231° |
| 2026-05-07 06:38 | 50.30062 | 3.59552 | 24028 ft | 398 kts | 232° |
| 2026-05-07 06:38 | 50.28345 | 3.56177 | 24481 ft | 401 kts | 233° |
| 2026-05-07 06:38 | 50.26613 | 3.52775 | 24936 ft | 403 kts | 233° |
| 2026-05-07 06:39 | 50.24855 | 3.49338 | 25373 ft | 406 kts | 232° |
| 2026-05-07 06:39 | 50.23083 | 3.45890 | 25791 ft | 409 kts | 232° |
| 2026-05-07 06:39 | 50.21308 | 3.42448 | 26190 ft | 412 kts | 232° |
| 2026-05-07 06:39 | 50.19504 | 3.38959 | 26583 ft | 414 kts | 232° |
| 2026-05-07 06:40 | 50.17676 | 3.35433 | 26963 ft | 417 kts | 232° |
| 2026-05-07 06:40 | 50.15856 | 3.31921 | 27331 ft | 420 kts | 232° |
| 2026-05-07 06:40 | 50.14008 | 3.28352 | 27692 ft | 422 kts | 232° |
| 2026-05-07 06:40 | 50.12156 | 3.24786 | 28036 ft | 425 kts | 232° |
| 2026-05-07 06:41 | 50.10307 | 3.21233 | 28371 ft | 428 kts | 232° |
| 2026-05-07 06:41 | 50.08428 | 3.17632 | 28711 ft | 430 kts | 232° |
| 2026-05-07 06:41 | 50.06552 | 3.14043 | 29132 ft | 430 kts | 232° |
| 2026-05-07 06:41 | 50.04657 | 3.10423 | 29621 ft | 428 kts | 231° |
| 2026-05-07 06:42 | 50.02790 | 3.06864 | 30072 ft | 427 kts | 232° |
| 2026-05-07 06:42 | 50.00919 | 3.03303 | 30501 ft | 426 kts | 231° |
| 2026-05-07 06:42 | 49.99065 | 2.99778 | 30911 ft | 425 kts | 232° |
| 2026-05-07 06:42 | 49.97201 | 2.96240 | 31299 ft | 425 kts | 232° |
| 2026-05-07 06:43 | 49.95338 | 2.92710 | 31689 ft | 424 kts | 232° |
| 2026-05-07 06:43 | 49.93462 | 2.89159 | 32073 ft | 423 kts | 232° |
| 2026-05-07 06:43 | 49.91618 | 2.85673 | 32446 ft | 421 kts | 232° |
| 2026-05-07 06:43 | 49.89762 | 2.82168 | 32815 ft | 420 kts | 232° |
| 2026-05-07 06:44 | 49.87890 | 2.78661 | 33169 ft | 419 kts | 232° |
| 2026-05-07 06:44 | 49.86030 | 2.75186 | 33493 ft | 418 kts | 232° |
| 2026-05-07 06:44 | 49.84181 | 2.71730 | 33778 ft | 418 kts | 232° |
| 2026-05-07 06:44 | 49.82337 | 2.68283 | 34046 ft | 418 kts | 232° |
| 2026-05-07 06:45 | 49.80485 | 2.64818 | 34318 ft | 418 kts | 232° |
| 2026-05-07 06:45 | 49.78637 | 2.61363 | 34568 ft | 418 kts | 232° |
| 2026-05-07 06:45 | 49.76781 | 2.57894 | 34801 ft | 419 kts | 232° |
| 2026-05-07 06:45 | 49.74932 | 2.54440 | 34995 ft | 419 kts | 232° |
| 2026-05-07 06:46 | 49.73073 | 2.50974 | 35157 ft | 420 kts | 232° |
| 2026-05-07 06:46 | 49.71228 | 2.47535 | 35309 ft | 420 kts | 232° |
| 2026-05-07 06:46 | 49.69343 | 2.44028 | 35462 ft | 421 kts | 232° |
| 2026-05-07 06:46 | 49.67486 | 2.40577 | 35608 ft | 421 kts | 232° |
| 2026-05-07 06:47 | 49.65622 | 2.37118 | 35746 ft | 422 kts | 232° |
| 2026-05-07 06:47 | 49.63743 | 2.33635 | 35882 ft | 422 kts | 231° |
| 2026-05-07 06:47 | 49.61865 | 2.30145 | 35993 ft | 423 kts | 231° |
| 2026-05-07 06:47 | 49.59992 | 2.26668 | 36012 ft | 424 kts | 231° |
| 2026-05-07 06:48 | 49.56221 | 2.19698 | 36021 ft | 423 kts | 231° |
| 2026-05-07 06:48 | 49.52435 | 2.12724 | 36028 ft | 424 kts | 231° |
| 2026-05-07 06:49 | 49.48669 | 2.05811 | 36030 ft | 423 kts | 231° |
| 2026-05-07 06:49 | 49.44904 | 1.98918 | 36033 ft | 422 kts | 231° |
| 2026-05-07 06:50 | 49.41140 | 1.92048 | 36029 ft | 422 kts | 231° |
| 2026-05-07 06:50 | 49.37366 | 1.85176 | 36026 ft | 423 kts | 231° |
| 2026-05-07 06:51 | 49.33559 | 1.78263 | 36026 ft | 423 kts | 231° |
| 2026-05-07 06:51 | 49.29759 | 1.71380 | 36027 ft | 423 kts | 231° |
| 2026-05-07 06:52 | 49.25979 | 1.64552 | 35871 ft | 423 kts | 231° |
| 2026-05-07 06:52 | 49.22155 | 1.57661 | 35967 ft | 424 kts | 231° |
| 2026-05-07 06:53 | 49.18359 | 1.50840 | 36004 ft | 424 kts | 231° |
| 2026-05-07 06:53 | 49.14542 | 1.43999 | 36024 ft | 424 kts | 231° |
| 2026-05-07 06:54 | 49.10716 | 1.37160 | 36027 ft | 424 kts | 231° |
| 2026-05-07 06:54 | 49.06878 | 1.30299 | 36034 ft | 424 kts | 230° |
| 2026-05-07 06:55 | 49.03066 | 1.23496 | 36040 ft | 424 kts | 230° |
| 2026-05-07 06:55 | 48.99245 | 1.16706 | 36041 ft | 424 kts | 230° |
| 2026-05-07 06:56 | 48.95406 | 1.09908 | 36040 ft | 424 kts | 230° |
| 2026-05-07 06:56 | 48.91570 | 1.03137 | 36043 ft | 423 kts | 230° |
| 2026-05-07 06:57 | 48.87706 | 0.96353 | 36036 ft | 423 kts | 230° |
| 2026-05-07 06:57 | 48.83860 | 0.89646 | 36035 ft | 422 kts | 230° |
| 2026-05-07 06:58 | 48.80000 | 0.82910 | 36031 ft | 422 kts | 230° |
| 2026-05-07 06:58 | 48.76152 | 0.76197 | 36035 ft | 422 kts | 230° |
| 2026-05-07 06:59 | 48.72257 | 0.69414 | 36032 ft | 422 kts | 230° |
| 2026-05-07 06:59 | 48.69070 | 0.63877 | 36030 ft | 422 kts | 230° |